Time;durP1;ratioP1;P1;durP2;ratioP2;P2;SDS_P1;SDS_P2;PMS_P1;PMS_P2;Temp;Humidity;BMP_temperature;BMP_pressure;BME280_temperature;BME280_humidity;BME280_pressure;Samples;Min_cycle;Max_cycle;Signal;HPM_P1;HPM_P2
2022/04/16 00:01:03;;;;;;;2.08;1.02;;;4.10;99.90;;;;;;4991308;28;20062;-81
2022/04/16 00:03:33;;;;;;;2.72;1.05;;;4.00;99.90;;;;;;4993273;28;20139;-80
2022/04/16 00:06:00;;;;;;;3.15;1.08;;;3.90;99.90;;;;;;4992686;28;20093;-80
2022/04/16 00:08:29;;;;;;;1.35;1.15;;;3.80;99.90;;;;;;4992622;28;20050;-80
2022/04/16 00:10:57;;;;;;;2.95;1.20;;;3.80;99.90;;;;;;4993481;28;20057;-80
2022/04/16 00:13:25;;;;;;;2.25;1.48;;;3.70;99.90;;;;;;4991332;28;20057;-81
2022/04/16 00:15:54;;;;;;;3.88;1.10;;;3.70;99.90;;;;;;4993344;28;20046;-81
2022/04/16 00:18:23;;;;;;;2.97;1.20;;;3.80;99.90;;;;;;4990593;28;20489;-81
2022/04/16 00:20:51;;;;;;;1.20;1.10;;;3.90;99.90;;;;;;4993023;28;20506;-82
2022/04/16 00:23:20;;;;;;;1.30;0.90;;;4.00;99.90;;;;;;4992896;28;20050;-81
2022/04/16 00:25:48;;;;;;;4.05;1.00;;;4.00;99.90;;;;;;4991624;28;20054;-82
2022/04/16 00:28:15;;;;;;;3.50;0.98;;;4.10;99.90;;;;;;4990152;28;20142;-82
2022/04/16 00:30:43;;;;;;;3.67;0.95;;;4.10;99.90;;;;;;5007841;28;20046;-82
2022/04/16 00:33:13;;;;;;;1.95;0.95;;;4.20;99.90;;;;;;4991580;28;20051;-83
2022/04/16 00:35:43;;;;;;;1.85;1.40;;;4.20;99.90;;;;;;4990885;28;20046;-83
2022/04/16 00:38:11;;;;;;;2.60;1.13;;;4.30;99.90;;;;;;4991239;28;20046;-83
2022/04/16 00:40:39;;;;;;;4.65;1.00;;;4.30;99.90;;;;;;5007846;28;20046;-82
2022/04/16 00:43:07;;;;;;;1.05;0.95;;;4.30;99.90;;;;;;4992356;28;20050;-82
2022/04/16 00:45:37;;;;;;;4.15;1.35;;;4.30;99.90;;;;;;4991894;28;20073;-83
2022/04/16 00:48:07;;;;;;;1.75;0.88;;;4.30;99.90;;;;;;4991122;28;20058;-82
2022/04/16 00:50:34;;;;;;;3.30;1.10;;;4.30;99.90;;;;;;4991036;28;20081;-82
2022/04/16 00:53:03;;;;;;;1.67;0.90;;;4.30;99.90;;;;;;4990596;28;20074;-82
2022/04/16 00:55:31;;;;;;;5.47;1.10;;;4.30;99.90;;;;;;4989648;28;20053;-82
2022/04/16 00:57:59;;;;;;;2.00;0.90;;;4.30;99.90;;;;;;4989653;28;20038;-82
2022/04/16 01:00:26;;;;;;;2.15;0.90;;;4.30;99.90;;;;;;4987354;28;20050;-82
2022/04/16 01:02:56;;;;;;;3.53;1.13;;;4.30;99.90;;;;;;5006314;28;20137;-82
2022/04/16 01:05:24;;;;;;;2.40;1.23;;;4.30;99.90;;;;;;4992139;28;20066;-79
2022/04/16 01:07:53;;;;;;;4.68;1.08;;;4.20;99.90;;;;;;4992064;28;20054;-82
2022/04/16 01:10:25;;;;;;;2.92;1.23;;;4.10;99.90;;;;;;4992035;28;20059;-81
2022/04/16 01:12:54;;;;;;;2.70;1.20;;;3.90;99.90;;;;;;4990837;28;20042;-81
2022/04/16 01:15:21;;;;;;;1.73;1.23;;;3.80;99.90;;;;;;4990688;28;20703;-79
2022/04/16 01:17:49;;;;;;;2.30;1.10;;;3.70;99.90;;;;;;4974570;28;20528;-78
2022/04/16 01:20:17;;;;;;;2.63;1.10;;;3.50;99.90;;;;;;4989808;28;20073;-78
2022/04/16 01:22:47;;;;;;;1.02;0.73;;;3.40;99.90;;;;;;4990602;28;20042;-77
2022/04/16 01:25:15;;;;;;;3.45;1.27;;;3.30;99.90;;;;;;5007310;28;20148;-76
2022/04/16 01:27:45;;;;;;;3.20;1.05;;;3.30;99.90;;;;;;4991666;28;20534;-75
2022/04/16 01:30:14;;;;;;;2.97;1.25;;;3.20;99.90;;;;;;4991073;28;20065;-78
2022/04/16 01:32:42;;;;;;;1.30;1.00;;;3.20;99.90;;;;;;4991414;28;20145;-78
2022/04/16 01:35:10;;;;;;;1.42;0.90;;;3.10;99.90;;;;;;4973555;28;20050;-78
2022/04/16 01:37:38;;;;;;;3.08;1.13;;;3.20;99.90;;;;;;4989933;28;20081;-77
2022/04/16 01:40:11;;;;;;;3.85;1.08;;;3.10;99.90;;;;;;4990655;28;20469;-77
2022/04/16 01:42:39;;;;;;;2.83;1.40;;;3.10;99.90;;;;;;5006242;28;20104;-77
2022/04/16 01:45:09;;;;;;;1.33;0.90;;;2.90;99.90;;;;;;4990005;28;20042;-77
2022/04/16 01:47:38;;;;;;;3.35;1.02;;;2.90;99.90;;;;;;4990329;28;20052;-78
2022/04/16 01:50:08;;;;;;;1.30;0.95;;;2.80;99.90;;;;;;4990609;28;20049;-77
2022/04/16 01:52:37;;;;;;;2.22;0.80;;;2.70;99.90;;;;;;4990164;28;20052;-77
2022/04/16 01:55:08;;;;;;;3.03;1.00;;;2.70;99.90;;;;;;4989033;28;20062;-77
2022/04/16 01:57:36;;;;;;;1.50;1.02;;;2.60;99.90;;;;;;4990259;28;20052;-76
2022/04/16 02:00:07;;;;;;;2.97;1.30;;;2.70;99.90;;;;;;4989850;28;20057;-77
2022/04/16 02:02:36;;;;;;;1.75;1.08;;;2.70;99.90;;;;;;4975105;28;20510;-78
2022/04/16 02:05:05;;;;;;;1.30;1.20;;;2.70;99.90;;;;;;4991321;28;20049;-78
2022/04/16 02:07:33;;;;;;;3.20;1.33;;;2.60;99.90;;;;;;4989161;28;20518;-78
2022/04/16 02:10:00;;;;;;;5.20;1.40;;;2.60;99.90;;;;;;4973913;28;20046;-78
2022/04/16 02:12:29;;;;;;;2.28;1.25;;;2.60;99.90;;;;;;4991248;28;20109;-76
2022/04/16 02:14:56;;;;;;;2.42;1.08;;;2.70;99.90;;;;;;4990731;28;20042;-77
2022/04/16 02:17:24;;;;;;;1.52;0.90;;;2.70;99.90;;;;;;5004766;28;20058;-79
2022/04/16 02:19:52;;;;;;;2.05;1.52;;;2.70;99.90;;;;;;4991463;28;20053;-76
2022/04/16 02:22:19;;;;;;;2.17;1.50;;;2.60;99.90;;;;;;4989854;28;20089;-79
2022/04/16 02:24:47;;;;;;;2.35;1.30;;;2.70;99.90;;;;;;4989783;28;20050;-77
2022/04/16 02:27:14;;;;;;;2.10;1.15;;;2.60;99.90;;;;;;5005298;28;20664;-76
2022/04/16 02:29:44;;;;;;;3.65;1.40;;;2.60;99.90;;;;;;4991026;28;20061;-77
2022/04/16 02:32:11;;;;;;;3.33;1.50;;;2.50;99.90;;;;;;4989204;28;20506;-77
2022/04/16 02:34:39;;;;;;;4.53;1.55;;;2.50;99.90;;;;;;4989962;28;20050;-77
2022/04/16 02:37:06;;;;;;;6.88;1.55;;;2.50;99.90;;;;;;4989512;28;20204;-77
2022/04/16 02:39:34;;;;;;;3.40;1.05;;;2.40;99.90;;;;;;4989950;28;20061;-78
2022/04/16 02:42:02;;;;;;;1.15;1.05;;;2.40;99.90;;;;;;4971745;28;20046;-78
2022/04/16 02:47:15;;;;;;;2.35;1.10;;;2.30;99.90;;;;;;4989108;28;20053;-78
2022/04/16 02:49:43;;;;;;;1.85;0.90;;;2.20;99.90;;;;;;4989024;28;20048;-78
2022/04/16 02:52:11;;;;;;;2.53;1.10;;;2.20;99.90;;;;;;4987976;28;20546;-79
2022/04/16 02:54:38;;;;;;;2.63;1.13;;;2.10;99.90;;;;;;4991792;28;20141;-78
2022/04/16 02:57:06;;;;;;;3.97;1.20;;;2.10;99.90;;;;;;4994184;28;20412;-79
2022/04/16 02:59:35;;;;;;;1.73;1.23;;;2.10;99.90;;;;;;5025955;28;20054;-79
2022/04/16 03:02:03;;;;;;;2.50;0.90;;;2.00;99.90;;;;;;4975693;28;20076;-78
2022/04/16 03:04:32;;;;;;;1.92;1.38;;;2.00;99.90;;;;;;4994882;28;20070;-78
2022/04/16 03:06:59;;;;;;;6.55;1.13;;;2.00;99.90;;;;;;4989368;28;20046;-79
2022/04/16 03:09:27;;;;;;;6.72;1.38;;;1.90;99.90;;;;;;4991132;28;20076;-79
2022/04/16 03:11:54;;;;;;;1.15;1.05;;;1.90;99.90;;;;;;4994453;28;20053;-78
2022/04/16 03:19:54;;;;;;;9.98;1.90;;;2.00;99.90;;;;;;4993476;28;20198;-78
2022/04/16 03:22:21;;;;;;;7.47;1.90;;;1.90;99.90;;;;;;4994406;28;20061;-77
2022/04/16 03:24:49;;;;;;;7.32;1.30;;;1.90;99.90;;;;;;4994362;28;20052;-78
2022/04/16 03:27:16;;;;;;;11.10;2.03;;;1.90;99.90;;;;;;4992761;28;20519;-78
2022/04/16 03:29:44;;;;;;;2.65;1.08;;;1.90;99.90;;;;;;4991811;28;20042;-78
2022/04/16 03:32:11;;;;;;;4.40;1.98;;;1.90;99.90;;;;;;4993004;28;20625;-78
2022/04/16 03:34:39;;;;;;;3.70;1.70;;;1.90;99.90;;;;;;4992609;28;20534;-78
2022/04/16 03:37:08;;;;;;;1.15;0.90;;;1.90;99.90;;;;;;4991456;28;20050;-78
2022/04/16 03:39:36;;;;;;;1.00;0.90;;;1.90;99.90;;;;;;4994143;28;20447;-78
2022/04/16 03:42:03;;;;;;;9.10;1.70;;;1.90;99.90;;;;;;4992523;28;20050;-78
2022/04/16 03:44:31;;;;;;;6.22;1.25;;;1.90;99.90;;;;;;4991961;28;20052;-78
2022/04/16 03:46:58;;;;;;;1.33;0.93;;;2.00;99.90;;;;;;4991188;28;20069;-79
2022/04/16 03:49:26;;;;;;;1.70;1.10;;;2.00;99.90;;;;;;4975426;28;20145;-78
2022/04/16 03:51:53;;;;;;;7.18;1.13;;;2.10;99.90;;;;;;4993277;28;20089;-77
2022/04/16 04:00:03;;;;;;;5.50;1.08;;;2.20;99.90;;;;;;4993280;28;20085;-78
2022/04/16 04:02:39;;;;;;;1.42;1.27;;;2.30;99.90;;;;;;4992040;28;20420;-78
2022/04/16 04:05:07;;;;;;;2.22;1.38;;;2.20;99.90;;;;;;4991591;28;20129;-77
2022/04/16 04:07:35;;;;;;;2.85;1.33;;;2.20;99.90;;;;;;4992402;28;20050;-77
2022/04/16 04:10:04;;;;;;;4.05;1.23;;;2.20;99.90;;;;;;4988568;28;20051;-77
2022/04/16 04:12:32;;;;;;;3.38;1.20;;;2.20;99.90;;;;;;4990654;28;20434;-77
2022/04/16 04:14:59;;;;;;;4.25;1.40;;;2.20;99.90;;;;;;4992948;28;20458;-77
2022/04/16 04:17:27;;;;;;;3.05;1.10;;;2.10;99.90;;;;;;4992474;28;20529;-77
2022/04/16 04:19:55;;;;;;;5.13;1.38;;;2.20;99.90;;;;;;4975169;28;20049;-77
2022/04/16 04:22:22;;;;;;;4.60;1.38;;;2.20;99.90;;;;;;4992379;28;20058;-77
2022/04/16 04:24:49;;;;;;;3.85;1.13;;;2.20;99.90;;;;;;4990720;28;20057;-77
2022/04/16 04:27:18;;;;;;;4.05;1.42;;;2.20;99.90;;;;;;4992435;28;20351;-78
2022/04/16 04:29:46;;;;;;;2.67;0.90;;;2.20;99.90;;;;;;4989636;28;20109;-78
2022/04/16 04:32:13;;;;;;;1.95;1.00;;;2.20;99.90;;;;;;4991235;28;20112;-77
2022/04/16 04:34:41;;;;;;;2.95;0.90;;;2.20;99.90;;;;;;5007308;28;20074;-77
2022/04/16 04:37:10;;;;;;;3.05;1.00;;;2.20;99.90;;;;;;4974276;28;20054;-78
2022/04/16 04:39:38;;;;;;;4.00;0.95;;;2.30;99.90;;;;;;4990212;28;20050;-83
2022/04/16 04:42:06;;;;;;;1.42;0.90;;;2.30;99.90;;;;;;4991787;28;20070;-78
2022/04/16 04:44:35;;;;;;;2.70;0.90;;;2.30;99.90;;;;;;4992621;28;20061;-78
2022/04/16 04:47:02;;;;;;;3.70;1.48;;;2.30;99.90;;;;;;4987189;28;20097;-77
2022/04/16 04:49:30;;;;;;;2.85;1.30;;;2.30;99.90;;;;;;4984596;28;20054;-79
2022/04/16 04:51:57;;;;;;;3.40;0.90;;;2.40;99.90;;;;;;4990957;28;20043;-80
2022/04/16 04:54:25;;;;;;;3.72;1.00;;;2.40;99.90;;;;;;4991857;28;20681;-78
2022/04/16 04:56:53;;;;;;;4.95;0.68;;;2.40;99.90;;;;;;4990094;28;20430;-79
2022/04/16 04:59:20;;;;;;;1.77;0.77;;;2.50;99.90;;;;;;4990217;28;20054;-79
2022/04/16 05:01:49;;;;;;;7.03;1.33;;;2.50;99.90;;;;;;4991229;28;20054;-79
2022/04/16 05:04:17;;;;;;;6.93;1.17;;;2.50;99.90;;;;;;4991357;28;20054;-79
2022/04/16 05:06:45;;;;;;;2.42;1.20;;;2.60;99.90;;;;;;4973172;28;20058;-79
2022/04/16 05:09:12;;;;;;;10.65;1.30;;;2.60;99.90;;;;;;4984336;28;20081;-80
2022/04/16 05:11:40;;;;;;;3.88;1.20;;;2.70;99.90;;;;;;4984803;28;20058;-77
2022/04/16 05:14:07;;;;;;;4.07;0.98;;;2.80;99.90;;;;;;4987510;28;20089;-79
2022/04/16 05:16:35;;;;;;;3.03;0.73;;;2.90;99.90;;;;;;4984474;28;20065;-87
2022/04/16 05:19:04;;;;;;;6.72;1.02;;;3.00;99.90;;;;;;4989998;28;20053;-81
2022/04/16 05:21:32;;;;;;;5.03;1.38;;;3.00;99.90;;;;;;4990657;28;20047;-83
2022/04/16 05:23:59;;;;;;;1.92;1.10;;;3.00;99.90;;;;;;4990514;28;20053;-80
2022/04/16 05:26:27;;;;;;;2.65;1.35;;;3.10;99.90;;;;;;4986269;28;20054;-82
2022/04/16 05:28:56;;;;;;;3.40;0.77;;;3.20;99.90;;;;;;4989083;28;20078;-80
2022/04/16 05:31:26;;;;;;;6.47;0.65;;;3.40;99.90;;;;;;4988001;28;20054;-80
2022/04/16 05:36:40;;;;;;;8.68;1.38;;;4.20;99.90;;;;;;4974273;28;20073;-83
2022/04/16 05:39:08;;;;;;;4.38;1.27;;;4.70;99.90;;;;;;4989204;28;20324;-83
2022/04/16 05:41:36;;;;;;;4.82;1.23;;;5.20;99.90;;;;;;4990253;28;20054;-80
2022/04/16 05:44:05;;;;;;;3.22;1.15;;;5.90;99.90;;;;;;4990450;28;20056;-81
2022/04/16 05:46:32;;;;;;;1.77;0.80;;;6.60;99.90;;;;;;4991393;28;20137;-82
2022/04/16 05:49:00;;;;;;;4.43;0.80;;;7.00;99.90;;;;;;4990194;28;20137;-82
2022/04/16 05:51:28;;;;;;;4.28;0.80;;;7.20;99.90;;;;;;4989080;28;20528;-80
2022/04/16 05:53:57;;;;;;;7.30;2.30;;;7.60;99.90;;;;;;4990083;28;20422;-81
2022/04/16 05:56:25;;;;;;;4.43;0.93;;;7.80;99.90;;;;;;4991291;28;20054;-83
2022/04/16 05:58:52;;;;;;;2.45;1.08;;;8.20;99.10;;;;;;4990671;28;20077;-81
2022/04/16 06:01:20;;;;;;;3.65;1.00;;;8.20;95.50;;;;;;4989734;28;20128;-82
2022/04/16 06:03:47;;;;;;;5.43;0.90;;;8.20;95.30;;;;;;4991162;28;20054;-83
2022/04/16 06:06:18;;;;;;;6.60;1.55;;;8.30;95.80;;;;;;4989053;28;20054;-82
2022/04/16 06:08:46;;;;;;;3.90;1.20;;;8.60;94.90;;;;;;4990174;28;20061;-82
2022/04/16 06:11:17;;;;;;;10.80;1.55;;;8.70;91.00;;;;;;4971147;28;20039;-79
2022/04/16 06:13:45;;;;;;;12.80;1.23;;;8.60;92.60;;;;;;4972797;28;20054;-83
2022/04/16 06:16:13;;;;;;;2.17;0.80;;;8.70;90.70;;;;;;4969791;28;20039;-82
2022/04/16 06:18:40;;;;;;;2.78;0.65;;;8.70;91.60;;;;;;4984917;28;20050;-82
2022/04/16 06:21:08;;;;;;;4.63;1.00;;;9.00;92.90;;;;;;4989163;28;20146;-81
2022/04/16 06:23:35;;;;;;;3.10;1.17;;;9.60;90.10;;;;;;4990378;28;20050;-81
2022/04/16 06:26:03;;;;;;;2.67;1.02;;;10.00;86.50;;;;;;4990112;28;20105;-79
2022/04/16 06:28:32;;;;;;;3.17;1.02;;;10.30;81.60;;;;;;4989988;28;20089;-78
2022/04/16 06:30:59;;;;;;;5.38;0.85;;;10.40;79.30;;;;;;4993729;28;20057;-78
2022/04/16 06:33:27;;;;;;;4.47;1.02;;;10.30;78.60;;;;;;4993860;28;20391;-79
2022/04/16 06:35:54;;;;;;;4.43;0.90;;;10.20;78.70;;;;;;4994793;28;20050;-82
2022/04/16 06:38:22;;;;;;;5.43;1.05;;;10.00;78.30;;;;;;4994689;28;20046;-83
2022/04/16 06:40:50;;;;;;;1.50;1.05;;;10.00;79.50;;;;;;4993936;28;20073;-81
2022/04/16 06:43:17;;;;;;;6.78;1.38;;;10.30;78.40;;;;;;4993177;28;20509;-80
2022/04/16 06:45:53;;;;;;;4.00;0.70;;;10.70;77.20;;;;;;4980611;28;20423;-81
2022/04/16 06:48:21;;;;;;;8.52;1.30;;;10.70;73.80;;;;;;4991103;28;20050;-80
2022/04/16 06:50:48;;;;;;;8.00;1.60;;;10.50;76.40;;;;;;4994683;28;20061;-82
2022/04/16 06:53:17;;;;;;;4.75;1.00;;;10.40;76.00;;;;;;4994465;28;20426;-79
2022/04/16 06:55:44;;;;;;;4.45;1.27;;;10.50;74.00;;;;;;4994779;28;20058;-82
2022/04/16 06:58:12;;;;;;;3.42;1.20;;;10.70;73.40;;;;;;4991353;28;20046;-82
2022/04/16 07:00:40;;;;;;;5.15;1.73;;;11.10;72.80;;;;;;4994575;28;20038;-83
2022/04/16 07:03:10;;;;;;;4.53;1.38;;;11.40;70.70;;;;;;4995407;28;20053;-79
2022/04/16 07:05:37;;;;;;;6.13;0.90;;;11.90;70.20;;;;;;4993816;28;20399;-79
2022/04/16 07:08:05;;;;;;;3.75;1.30;;;12.40;67.10;;;;;;4994833;28;20137;-81
2022/04/16 07:10:32;;;;;;;7.30;1.15;;;12.90;65.50;;;;;;4994350;28;20054;-79
2022/04/16 07:13:00;;;;;;;7.47;0.88;;;13.10;64.80;;;;;;4993385;28;20046;-79
2022/04/16 07:15:27;;;;;;;5.75;1.10;;;13.50;61.80;;;;;;4995428;28;20058;-78
2022/04/16 07:17:55;;;;;;;3.92;1.60;;;13.90;59.80;;;;;;4993635;28;20059;-79
2022/04/16 07:20:24;;;;;;;7.60;1.35;;;14.20;58.80;;;;;;4994638;28;20042;-79
2022/04/16 07:22:52;;;;;;;2.95;1.17;;;14.60;58.60;;;;;;4993415;28;20062;-78
2022/04/16 07:25:21;;;;;;;3.13;1.15;;;14.90;56.60;;;;;;4989860;28;20453;-79
2022/04/16 07:27:48;;;;;;;5.05;1.70;;;15.10;56.60;;;;;;4975341;28;20086;-81
2022/04/16 07:30:16;;;;;;;3.00;1.13;;;15.10;55.30;;;;;;4975757;28;20086;-81
2022/04/16 07:32:43;;;;;;;16.15;1.52;;;15.40;55.60;;;;;;4975001;28;20142;-79
2022/04/16 07:35:11;;;;;;;2.58;1.48;;;15.80;54.30;;;;;;4975743;28;20046;-78
2022/04/16 07:37:40;;;;;;;2.53;1.10;;;16.10;53.90;;;;;;4990161;28;20505;-77
2022/04/16 07:40:10;;;;;;;6.97;1.38;;;16.30;53.40;;;;;;4975503;28;20058;-77
2022/04/16 07:42:38;;;;;;;3.25;1.20;;;16.40;52.10;;;;;;4974069;28;20097;-78
2022/04/16 07:45:07;;;;;;;5.30;1.10;;;16.60;52.20;;;;;;4989866;28;20065;-77
2022/04/16 07:47:35;;;;;;;2.35;0.75;;;16.60;52.10;;;;;;4974925;28;20129;-78
2022/04/16 07:50:02;;;;;;;5.53;1.50;;;16.40;51.30;;;;;;4979711;28;20049;-79
2022/04/16 07:52:30;;;;;;;4.85;0.98;;;16.60;52.00;;;;;;4992222;28;20226;-79
2022/04/16 07:54:59;;;;;;;6.45;1.02;;;16.80;50.80;;;;;;4992748;28;20060;-78
2022/04/16 07:57:26;;;;;;;3.53;1.00;;;17.10;50.40;;;;;;4993521;28;20096;-79
2022/04/16 07:59:54;;;;;;;2.42;0.90;;;17.20;50.40;;;;;;4992998;28;20081;-79
2022/04/16 08:02:22;;;;;;;5.43;0.77;;;17.30;50.40;;;;;;4991222;28;20311;-79
2022/04/16 08:04:49;;;;;;;3.72;1.08;;;17.60;49.60;;;;;;4984074;28;20050;-78
2022/04/16 08:07:17;;;;;;;5.93;1.42;;;17.70;48.70;;;;;;4993722;28;20069;-79
2022/04/16 08:09:45;;;;;;;9.75;1.65;;;18.00;48.60;;;;;;4992291;28;20159;-81
2022/04/16 08:12:15;;;;;;;6.15;2.55;;;18.30;48.20;;;;;;5008603;28;20258;-78
2022/04/16 08:14:42;;;;;;;4.85;1.02;;;18.50;48.30;;;;;;4992935;28;20050;-78
2022/04/16 08:17:10;;;;;;;3.08;1.10;;;18.70;47.90;;;;;;4991425;28;20061;-81
2022/04/16 08:19:37;;;;;;;3.85;0.88;;;18.70;47.30;;;;;;4993850;28;20082;-83
2022/04/16 08:22:07;;;;;;;6.85;1.13;;;18.80;47.20;;;;;;4991886;28;20406;-82
2022/04/16 08:24:41;;;;;;;6.10;1.33;;;18.90;46.80;;;;;;4993448;28;20050;-80
2022/04/16 08:27:09;;;;;;;9.20;1.65;;;18.90;46.60;;;;;;4993232;28;20055;-81
2022/04/16 08:29:38;;;;;;;5.88;1.10;;;19.20;46.10;;;;;;4993761;28;20414;-79
2022/04/16 08:32:08;;;;;;;3.97;1.15;;;19.20;45.90;;;;;;4993116;28;20074;-80
2022/04/16 08:34:36;;;;;;;4.60;1.30;;;19.40;46.40;;;;;;4992430;28;20491;-81
2022/04/16 08:37:04;;;;;;;4.05;1.40;;;19.60;45.40;;;;;;4991755;28;20053;-80
2022/04/16 08:39:31;;;;;;;5.18;1.30;;;20.00;45.70;;;;;;4991927;28;20052;-79
2022/04/16 08:41:58;;;;;;;3.72;0.88;;;20.00;43.70;;;;;;4991228;28;20046;-79
2022/04/16 08:44:31;;;;;;;4.35;1.13;;;20.10;43.50;;;;;;4991483;28;20542;-78
2022/04/16 08:47:01;;;;;;;3.10;1.08;;;20.10;43.70;;;;;;4989023;28;20070;-80
2022/04/16 08:49:30;;;;;;;8.65;1.45;;;20.20;43.70;;;;;;5005593;28;20066;-79
2022/04/16 08:51:57;;;;;;;4.45;1.00;;;20.20;43.00;;;;;;4989862;28;20134;-78
2022/04/16 08:54:25;;;;;;;4.45;1.10;;;20.30;42.50;;;;;;4989923;28;20050;-80
2022/04/16 08:57:09;;;;;;;1.55;0.90;;;20.40;42.30;;;;;;5060641;27;20411;-79
2022/04/16 08:59:36;;;;;;;10.13;1.00;;;20.50;42.60;;;;;;5041731;28;20435;-81
2022/04/16 09:02:05;;;;;;;7.47;0.85;;;20.90;41.90;;;;;;5045452;28;20049;-79
2022/04/16 09:04:33;;;;;;;2.95;1.00;;;21.40;41.70;;;;;;5041168;28;20083;-80
2022/04/16 09:07:03;;;;;;;3.85;1.08;;;21.60;41.20;;;;;;5043429;28;20451;-81
2022/04/16 09:09:31;;;;;;;5.55;1.17;;;21.60;40.60;;;;;;5043726;28;20142;-80
2022/04/16 09:11:58;;;;;;;9.15;1.13;;;21.50;41.50;;;;;;5044685;28;20136;-78
2022/04/16 09:14:36;;;;;;;2.60;1.15;;;21.60;41.40;;;;;;5045640;28;20952;-84
2022/04/16 09:17:09;;;;;;;5.70;1.27;;;22.00;40.10;;;;;;5039135;28;20467;-80
2022/04/16 09:19:37;;;;;;;6.18;1.20;;;22.00;40.20;;;;;;5043542;28;20471;-82
2022/04/16 09:22:05;;;;;;;8.82;1.30;;;22.20;40.50;;;;;;5043163;28;20045;-84
2022/04/16 09:24:46;;;;;;;7.00;1.13;;;22.20;40.50;;;;;;5042650;28;20041;-78
2022/04/16 09:27:14;;;;;;;11.30;1.38;;;22.40;39.10;;;;;;5045130;28;20041;-85
2022/04/16 09:29:44;;;;;;;2.72;0.85;;;22.60;38.60;;;;;;5046857;28;20042;-82
2022/04/16 09:32:23;;;;;;;10.20;1.40;;;22.80;38.20;;;;;;5038768;28;20056;-81
2022/04/16 09:34:51;;;;;;;2.95;1.23;;;22.60;37.30;;;;;;5039642;28;20049;-80
2022/04/16 09:37:19;;;;;;;11.63;1.10;;;22.50;38.00;;;;;;5039234;28;20041;-80
2022/04/16 09:39:47;;;;;;;2.97;1.42;;;22.30;37.80;;;;;;5029216;28;20076;-79
2022/04/16 09:42:26;;;;;;;4.15;0.90;;;21.60;38.60;;;;;;5034153;28;20501;-81
2022/04/16 09:44:55;;;;;;;2.55;0.80;;;20.50;38.60;;;;;;5026955;28;20080;-76
2022/04/16 09:47:25;;;;;;;4.63;0.77;;;20.20;40.90;;;;;;5023907;28;20144;-77
2022/04/16 09:49:55;;;;;;;9.85;1.40;;;19.80;39.40;;;;;;5031819;28;20049;-77
2022/04/16 09:52:25;;;;;;;6.40;1.40;;;19.40;41.10;;;;;;5044499;28;20053;-76
2022/04/16 09:54:55;;;;;;;7.65;0.80;;;19.70;41.20;;;;;;5009124;28;20520;-78
2022/04/16 09:57:27;;;;;;;5.28;1.02;;;20.60;40.30;;;;;;5026906;28;20056;-77
2022/04/16 09:59:58;;;;;;;8.87;1.00;;;21.20;39.80;;;;;;5027504;28;20054;-79
2022/04/16 10:02:28;;;;;;;4.38;1.00;;;21.70;39.10;;;;;;5026754;28;20050;-81
2022/04/16 10:04:56;;;;;;;6.60;1.00;;;22.20;38.40;;;;;;5025815;28;20046;-76
2022/04/16 10:07:24;;;;;;;1.70;0.80;;;22.60;36.50;;;;;;5014359;28;20510;-77
2022/04/16 10:09:53;;;;;;;2.97;0.70;;;22.70;36.60;;;;;;5025663;28;20051;-76
2022/04/16 10:15:15;;;;;;;8.25;1.00;;;23.10;35.40;;;;;;5012217;28;20050;-77
2022/04/16 10:17:51;;;;;;;6.97;1.13;;;23.00;35.00;;;;;;5011847;28;20502;-79
2022/04/16 10:20:20;;;;;;;5.28;0.98;;;23.10;35.90;;;;;;5011787;28;20049;-80
2022/04/16 10:22:54;;;;;;;7.82;1.00;;;23.10;35.30;;;;;;5012974;28;20612;-79
2022/04/16 10:25:34;;;;;;;5.07;1.35;;;23.20;35.10;;;;;;5012404;28;20061;-78
2022/04/16 10:28:05;;;;;;;3.92;1.67;;;23.50;35.70;;;;;;5010681;28;20552;-78
2022/04/16 10:30:43;;;;;;;4.95;1.17;;;23.80;34.50;;;;;;5010939;28;20042;-79
2022/04/16 10:33:18;;;;;;;4.20;0.80;;;24.20;34.00;;;;;;4978357;28;20077;-79
2022/04/16 10:35:54;;;;;;;3.88;1.15;;;23.90;34.40;;;;;;5004435;28;20058;-78
2022/04/16 10:38:26;;;;;;;3.70;1.05;;;23.90;33.90;;;;;;5003347;28;20390;-80
2022/04/16 10:40:58;;;;;;;6.82;1.23;;;23.20;33.30;;;;;;4991935;28;20453;-78
2022/04/16 10:43:29;;;;;;;1.83;0.95;;;23.10;33.90;;;;;;4972562;28;20511;-79
2022/04/16 10:46:03;;;;;;;5.20;0.87;;;22.90;33.90;;;;;;4977405;28;20058;-78
2022/04/16 10:48:36;;;;;;;5.75;1.17;;;22.90;34.30;;;;;;5025259;28;20256;-78
2022/04/16 10:51:06;;;;;;;11.32;1.48;;;22.40;34.20;;;;;;5007506;28;20486;-77
2022/04/16 10:53:38;;;;;;;7.38;1.25;;;21.80;34.40;;;;;;4998072;28;20097;-77
2022/04/16 10:56:13;;;;;;;14.13;1.20;;;21.10;35.80;;;;;;5012718;28;20061;-78
2022/04/16 10:58:42;;;;;;;13.10;1.38;;;20.40;37.20;;;;;;5011875;28;20054;-79
2022/04/16 11:01:13;;;;;;;3.28;0.80;;;20.20;37.60;;;;;;5011610;28;20081;-79
2022/04/16 11:03:47;;;;;;;2.53;0.80;;;20.00;36.60;;;;;;4977498;28;20456;-78
2022/04/16 11:06:15;;;;;;;5.30;1.30;;;19.80;37.60;;;;;;4973711;28;20069;-77
2022/04/16 11:08:45;;;;;;;6.05;1.05;;;20.00;37.10;;;;;;4973709;28;20045;-77
2022/04/16 11:11:14;;;;;;;5.68;0.95;;;20.30;37.40;;;;;;4994086;28;20295;-77
2022/04/16 11:13:43;;;;;;;8.75;1.08;;;20.90;36.10;;;;;;4984920;28;20129;-77
2022/04/16 11:16:12;;;;;;;3.33;1.30;;;21.60;36.30;;;;;;5013234;28;20058;-77
2022/04/16 11:18:45;;;;;;;3.88;1.33;;;22.30;34.70;;;;;;4974221;28;20443;-77
2022/04/16 11:21:16;;;;;;;5.30;1.17;;;22.80;34.10;;;;;;4989244;28;20054;-80
2022/04/16 11:23:47;;;;;;;5.50;1.35;;;23.20;33.80;;;;;;4983395;28;20081;-79
2022/04/16 11:34:35;;;;;;;2.85;1.20;;;24.20;32.20;;;;;;4972228;28;20046;-78
2022/04/16 11:37:03;;;;;;;4.07;0.85;;;24.60;32.20;;;;;;4982029;28;20051;-80
2022/04/16 11:39:32;;;;;;;6.28;0.88;;;24.70;30.90;;;;;;4971998;28;20141;-79
2022/04/16 11:42:02;;;;;;;5.70;0.98;;;24.20;31.30;;;;;;4998181;28;20068;-80
2022/04/16 11:44:38;;;;;;;4.60;1.10;;;24.40;31.40;;;;;;5010559;28;20557;-80
2022/04/16 11:47:12;;;;;;;4.97;0.93;;;24.40;31.60;;;;;;4993174;28;20132;-80
2022/04/16 11:49:44;;;;;;;12.40;1.08;;;24.70;31.80;;;;;;4992089;28;20055;-81
2022/04/16 11:52:12;;;;;;;4.90;1.40;;;24.50;31.60;;;;;;4992692;28;20047;-80
2022/04/16 11:54:40;;;;;;;6.22;1.40;;;24.60;31.20;;;;;;4992710;28;20128;-78
2022/04/16 11:57:08;;;;;;;9.27;1.02;;;24.80;33.30;;;;;;4992625;28;20493;-80
2022/04/16 11:59:36;;;;;;;3.05;0.93;;;25.10;31.60;;;;;;4997086;28;20054;-81
2022/04/16 12:02:08;;;;;;;2.28;0.73;;;25.10;32.20;;;;;;4987546;28;20101;-81
2022/04/16 12:04:42;;;;;;;11.15;1.58;;;25.30;30.80;;;;;;4993447;28;20053;-79
2022/04/16 12:07:14;;;;;;;9.05;1.15;;;25.50;30.30;;;;;;4976855;28;20121;-80
2022/04/16 12:09:47;;;;;;;6.43;1.48;;;25.30;30.60;;;;;;4980273;28;20054;-77
2022/04/16 12:12:17;;;;;;;14.60;1.42;;;25.40;30.30;;;;;;4996054;28;20047;-77
2022/04/16 12:14:52;;;;;;;3.65;0.80;;;25.60;30.90;;;;;;4977453;28;20038;-80
2022/04/16 12:17:25;;;;;;;6.18;1.00;;;25.90;31.00;;;;;;4990812;28;20069;-78
2022/04/16 12:20:10;;;;;;;4.88;0.82;;;26.00;30.60;;;;;;4991460;28;20394;-78
2022/04/16 12:22:50;;;;;;;7.43;1.38;;;26.30;29.90;;;;;;4987269;28;20054;-80
2022/04/16 12:25:19;;;;;;;7.45;0.98;;;26.20;29.70;;;;;;4982487;28;20133;-84
2022/04/16 12:27:49;;;;;;;10.75;1.35;;;26.00;29.70;;;;;;5001134;28;20045;-86
2022/04/16 12:30:19;;;;;;;1.50;0.70;;;26.20;29.90;;;;;;5002574;28;20144;-85
2022/04/16 12:32:58;;;;;;;2.88;1.00;;;26.20;30.10;;;;;;4995526;28;20078;-86
2022/04/16 12:35:28;;;;;;;8.93;1.02;;;26.40;29.50;;;;;;4998783;28;20554;-83
2022/04/16 12:37:57;;;;;;;4.00;0.82;;;26.20;30.00;;;;;;5000202;28;20529;-85
2022/04/16 12:40:26;;;;;;;5.85;1.15;;;26.20;30.80;;;;;;5005150;28;20540;-81
2022/04/16 12:42:54;;;;;;;5.72;1.05;;;26.20;31.10;;;;;;5002226;28;20532;-78
2022/04/16 12:45:23;;;;;;;4.78;1.17;;;26.40;30.30;;;;;;4987025;28;20054;-79
2022/04/16 12:47:51;;;;;;;2.67;0.85;;;26.60;29.50;;;;;;4988997;28;20607;-78
2022/04/16 12:50:18;;;;;;;2.83;0.88;;;26.50;29.80;;;;;;4988078;28;20061;-78
2022/04/16 12:52:49;;;;;;;2.85;0.93;;;26.60;29.40;;;;;;4974524;28;20047;-79
2022/04/16 12:55:17;;;;;;;3.38;0.70;;;26.50;29.40;;;;;;4995825;28;20145;-79
2022/04/16 12:57:48;;;;;;;5.15;1.00;;;26.30;29.80;;;;;;4988132;28;20070;-79
2022/04/16 13:00:18;;;;;;;4.93;1.10;;;26.10;29.30;;;;;;4987328;28;20491;-79
2022/04/16 13:02:46;;;;;;;2.28;0.70;;;26.00;29.80;;;;;;4969559;28;20057;-79
2022/04/16 13:05:15;;;;;;;1.85;0.68;;;26.20;29.00;;;;;;4978454;28;20140;-79
2022/04/16 13:07:44;;;;;;;2.13;0.65;;;26.30;29.80;;;;;;4989068;28;20047;-79
2022/04/16 13:10:14;;;;;;;6.35;1.00;;;26.20;29.80;;;;;;4979083;28;20054;-79
2022/04/16 13:12:42;;;;;;;4.63;1.10;;;25.90;29.10;;;;;;4968956;28;20062;-79
2022/04/16 13:15:10;;;;;;;1.58;0.80;;;25.70;29.30;;;;;;4977935;28;20055;-79
2022/04/16 13:17:39;;;;;;;2.97;1.00;;;25.50;29.80;;;;;;4987647;28;20511;-79
2022/04/16 13:20:09;;;;;;;6.78;1.02;;;25.50;29.50;;;;;;4981681;28;20097;-79
2022/04/16 13:22:36;;;;;;;2.00;0.70;;;25.40;29.80;;;;;;4988809;28;20065;-79
2022/04/16 13:25:05;;;;;;;0.60;0.50;;;25.40;29.90;;;;;;4989682;28;20129;-81
2022/04/16 13:27:33;;;;;;;6.07;1.27;;;25.20;29.70;;;;;;4990413;28;20070;-80